Time;durP1;ratioP1;P1;durP2;ratioP2;P2;SDS_P1;SDS_P2;PMS_P1;PMS_P2;Temp;Humidity;BMP_temperature;BMP_pressure;BME280_temperature;BME280_humidity;BME280_pressure;Samples;Min_cycle;Max_cycle;Signal;HPM_P1;HPM_P2
2022/04/28 00:01:48;;;;;;;;;40.25;35.50;;;;;14.91;49.37;101835.06;5092737;28;45906;-78
2022/04/28 00:04:14;;;;;;;;;40.50;35.50;;;;;14.75;49.33;101815.09;5092537;28;45177;-76
2022/04/28 00:06:39;;;;;;;;;42.25;37.00;;;;;14.86;49.74;101826.94;5091663;28;45028;-76
2022/04/28 00:09:06;;;;;;;;;42.75;37.00;;;;;14.82;49.59;101830.34;5093246;27;44919;-75
2022/04/28 00:11:32;;;;;;;;;43.25;36.00;;;;;14.78;49.65;101828.47;5092941;27;45684;-75
2022/04/28 00:13:58;;;;;;;;;46.75;39.00;;;;;14.75;49.83;101827.44;5093117;27;45024;-77
2022/04/28 00:16:25;;;;;;;;;38.25;34.00;;;;;14.76;49.86;101832.78;5092431;27;45006;-84
2022/04/28 00:18:50;;;;;;;;;47.50;39.50;;;;;14.74;49.84;101837.13;5092075;28;45375;-76
2022/04/28 00:21:16;;;;;;;;;41.00;34.50;;;;;14.64;50.02;101816.50;5093029;28;45455;-78
2022/04/28 00:23:41;;;;;;;;;43.75;37.00;;;;;14.70;49.94;101835.22;5080038;27;45094;-75
2022/04/28 00:26:07;;;;;;;;;47.25;39.00;;;;;14.68;49.91;101826.34;5072253;28;44862;-77
2022/04/28 00:28:33;;;;;;;;;40.75;35.50;;;;;14.66;49.88;101831.56;5072449;28;44977;-78
2022/04/28 00:30:58;;;;;;;;;42.25;35.75;;;;;14.64;49.87;101827.06;5071953;28;46117;-75
2022/04/28 00:33:24;;;;;;;;;44.50;37.75;;;;;14.62;50.08;101823.44;5071726;28;45161;-75
2022/04/28 00:35:49;;;;;;;;;41.75;36.00;;;;;14.59;50.01;101828.66;5071992;28;44925;-80
2022/04/28 00:38:15;;;;;;;;;41.75;36.50;;;;;14.54;49.95;101822.31;5071596;28;44987;-75
2022/04/28 00:40:41;;;;;;;;;36.50;33.25;;;;;14.44;50.35;101811.34;5071715;28;45200;-78
2022/04/28 00:43:18;;;;;;;;;45.25;37.25;;;;;14.50;50.24;101820.38;5071475;28;45158;-83
2022/04/28 00:45:44;;;;;;;;;44.50;37.25;;;;;14.48;50.16;101822.06;5072156;28;45103;-79
2022/04/28 00:50:58;;;;;;;;;41.75;35.50;;;;;14.43;50.50;101820.13;5071966;28;45120;-80
2022/04/28 00:53:28;;;;;;;;;44.50;37.50;;;;;14.35;50.42;101800.44;5071641;28;45122;-82
2022/04/28 00:55:54;;;;;;;;;42.00;36.00;;;;;14.37;50.47;101809.31;5072357;28;45004;-76
2022/04/28 00:58:20;;;;;;;;;42.75;34.75;;;;;14.35;50.66;101816.31;5070539;28;45464;-75
2022/04/28 01:00:45;;;;;;;;;46.25;38.75;;;;;14.32;50.67;101810.00;5072175;28;45059;-86
2022/04/28 01:03:11;;;;;;;;;42.75;37.25;;;;;14.25;50.61;101808.88;5072639;28;45142;-88
2022/04/28 01:05:37;;;;;;;;;46.50;39.50;;;;;14.17;50.66;101802.41;5072011;28;45132;-75
2022/04/28 01:08:03;;;;;;;;;57.75;46.25;;;;;14.17;50.72;101811.22;5070447;28;45271;-90
2022/04/28 01:10:29;;;;;;;;;49.00;41.50;;;;;14.20;50.84;101821.03;5089095;27;45520;-82
2022/04/28 01:12:55;;;;;;;;;48.25;41.50;;;;;14.10;50.82;101803.03;5103114;27;45179;-91
2022/04/28 01:15:21;;;;;;;;;50.25;37.75;;;;;14.06;50.82;101806.41;5093159;27;45400;-78
2022/04/28 01:17:46;;;;;;;;;43.75;35.75;;;;;14.14;50.84;101826.09;5093212;27;45286;-76
2022/04/28 01:20:12;;;;;;;;;41.50;34.25;;;;;14.12;50.90;101822.47;5091693;27;45585;-85
2022/04/28 01:22:38;;;;;;;;;38.00;34.25;;;;;14.08;50.82;101820.56;5092703;28;45074;-77
2022/04/28 01:25:07;;;;;;;;;35.75;33.25;;;;;14.07;50.85;101822.31;5092574;28;45147;-89
2022/04/28 01:27:34;;;;;;;;;44.25;36.25;;;;;14.06;50.92;101822.25;5092800;27;44851;-91
2022/04/28 01:30:00;;;;;;;;;40.50;35.75;;;;;14.04;51.04;101827.50;5091766;27;45671;-90
2022/04/28 01:32:26;;;;;;;;;44.25;36.75;;;;;14.01;51.13;101815.91;5091949;28;45036;-75
2022/04/28 01:34:52;;;;;;;;;42.25;35.75;;;;;13.97;51.07;101820.16;5091645;27;45088;-93
2022/04/28 01:37:18;;;;;;;;;39.75;34.00;;;;;13.94;51.15;101818.31;5093309;27;45161;-89
2022/04/28 01:39:44;;;;;;;;;43.50;37.00;;;;;13.93;51.23;101816.50;5091989;27;45108;-92
2022/04/28 01:42:09;;;;;;;;;43.75;34.00;;;;;13.84;50.84;101810.88;5092908;28;45079;-92
2022/04/28 01:44:35;;;;;;;;;37.50;34.00;;;;;13.87;51.13;101815.38;5093022;27;45039;-91
2022/04/28 01:47:01;;;;;;;;;36.50;33.75;;;;;13.85;51.23;101817.06;5092419;27;45037;-85
2022/04/28 01:49:28;;;;;;;;;41.75;35.75;;;;;13.81;51.26;101818.69;5092604;27;45471;-82
2022/04/28 01:57:21;;;;;;;;;38.00;34.25;;;;;13.73;51.51;101816.56;5096987;28;44918;-92
2022/04/28 01:59:47;;;;;;;;;40.50;34.00;;;;;13.70;51.62;101824.41;5095781;27;45391;-92
2022/04/28 02:02:12;;;;;;;;;41.25;36.25;;;;;13.59;51.78;101813.38;5096451;28;45118;-92
2022/04/28 02:04:38;;;;;;;;;41.00;35.00;;;;;13.57;51.63;101809.81;5095964;27;45387;-92
2022/04/28 02:07:06;;;;;;;;;43.75;37.25;;;;;13.61;51.92;101823.19;5096587;28;45270;-93
2022/04/28 02:09:32;;;;;;;;;45.75;39.25;;;;;13.61;51.86;101830.22;5096148;27;45516;-89
2022/04/28 02:11:57;;;;;;;;;41.75;35.75;;;;;13.50;52.25;101813.97;5096115;28;45054;-92
2022/04/28 02:14:23;;;;;;;;;44.50;37.00;;;;;13.49;51.96;101819.16;5096254;28;45037;-93
2022/04/28 02:16:49;;;;;;;;;45.00;37.50;;;;;13.52;52.00;101830.75;5095997;27;44953;-92
2022/04/28 02:19:14;;;;;;;;;45.00;37.00;;;;;13.42;52.25;101812.72;5095557;27;45712;-93
2022/04/28 02:21:40;;;;;;;;;41.00;36.00;;;;;13.48;52.09;101826.19;5096673;28;45122;-90
2022/04/28 02:24:06;;;;;;;;;43.00;37.00;;;;;13.41;52.20;101818.88;5096189;27;45014;-93
2022/04/28 02:26:32;;;;;;;;;36.00;34.25;;;;;13.43;52.49;101836.56;5096565;28;44890;-89
2022/04/28 02:28:57;;;;;;;;;46.00;38.00;;;;;13.41;52.50;101835.59;5095796;28;45646;-93
2022/04/28 02:31:23;;;;;;;;;45.50;38.00;;;;;13.40;52.55;101836.44;5095921;28;44892;-91
2022/04/28 02:33:48;;;;;;;;;47.00;38.00;;;;;13.29;52.46;101827.16;5095438;27;44926;-91
2022/04/28 02:36:14;;;;;;;;;38.25;34.50;;;;;13.33;52.47;101834.38;5095602;27;45273;-93
2022/04/28 02:38:39;;;;;;;;;45.25;36.75;;;;;13.33;52.55;101844.03;5095603;27;44956;-87
2022/04/28 02:41:05;;;;;;;;;44.75;35.25;;;;;13.30;52.63;101833.34;5091068;27;45051;-93
2022/04/28 02:43:30;;;;;;;;;40.50;35.50;;;;;13.29;52.83;101843.00;5090027;27;45072;-91
2022/04/28 02:45:58;;;;;;;;;47.50;38.50;;;;;13.18;52.93;101825.81;5102429;27;45003;-92
2022/04/28 02:48:24;;;;;;;;;39.00;34.75;;;;;13.22;52.58;101840.97;5094192;28;45109;-92
2022/04/28 02:50:50;;;;;;;;;46.25;38.25;;;;;13.06;52.93;101820.03;5095931;28;45236;-93
2022/04/28 02:53:15;;;;;;;;;47.25;38.25;;;;;13.02;52.84;101807.53;5096355;27;45188;-93
2022/04/28 02:55:41;;;;;;;;;43.75;36.00;;;;;13.14;53.37;101837.06;5096244;27;44912;-92
2022/04/28 02:58:08;;;;;;;;;44.00;37.50;;;;;13.15;52.91;101844.13;5095435;27;45986;-93
2022/04/28 03:00:35;;;;;;;;;39.50;34.25;;;;;13.12;52.92;101849.31;5095651;27;45352;-91
2022/04/28 03:03:00;;;;;;;;;47.25;37.50;;;;;13.09;53.06;101852.72;5095943;27;44870;-93
2022/04/28 03:05:26;;;;;;;;;47.00;36.75;;;;;13.07;53.24;101854.41;5128837;27;44928;-90
2022/04/28 03:13:10;;;;;;;;;40.75;35.50;;;;;13.02;53.23;101857.69;5094918;27;45047;-88
2022/04/28 03:15:36;;;;;;;;;48.50;38.50;;;;;12.99;53.26;101858.44;5095108;28;44911;-93
2022/04/28 03:18:02;;;;;;;;;45.50;37.50;;;;;12.98;53.38;101861.91;5087265;28;45675;-84
2022/04/28 03:20:27;;;;;;;;;40.50;35.50;;;;;12.97;53.48;101861.88;5080138;28;45044;-94
2022/04/28 03:22:53;;;;;;;;;37.25;33.75;;;;;12.95;53.77;101852.97;5075106;28;45059;-93
2022/04/28 03:25:18;;;;;;;;;40.25;35.00;;;;;12.93;53.72;101863.47;5075194;28;45081;-92
2022/04/28 03:27:44;;;;;;;;;37.25;33.00;;;;;12.91;54.05;101858.13;5075021;28;46557;-93
2022/04/28 03:30:10;;;;;;;;;37.75;33.25;;;;;12.72;54.24;101828.25;5075435;28;45330;-93
2022/04/28 03:32:35;;;;;;;;;46.75;37.25;;;;;12.84;53.87;101857.78;5075154;28;45188;-93
2022/04/28 03:35:01;;;;;;;;;48.00;40.50;;;;;12.84;53.81;101860.41;5074937;28;44992;-92
2022/04/28 03:37:26;;;;;;;;;49.50;41.00;;;;;12.81;54.04;101857.66;5075068;28;45244;-93
2022/04/28 03:39:52;;;;;;;;;52.75;41.25;;;;;12.71;54.25;101842.25;5074742;28;44913;-90
2022/04/28 03:42:17;;;;;;;;;54.25;43.75;;;;;12.79;54.09;101861.97;5074892;28;44879;-91
2022/04/28 03:44:43;;;;;;;;;57.00;46.25;;;;;12.69;54.10;101850.09;5074380;28;45087;-90
2022/04/28 03:47:08;;;;;;;;;65.50;52.25;;;;;12.62;54.10;101848.94;5074489;28;45600;-92
2022/04/28 03:49:34;;;;;;;;;68.75;53.25;;;;;12.74;54.20;101859.13;5074466;28;44968;-92
2022/04/28 03:51:59;;;;;;;;;66.25;51.25;;;;;12.65;54.51;101846.44;5074605;28;44838;-93
2022/04/28 03:54:25;;;;;;;;;71.50;55.25;;;;;12.65;54.51;101862.25;5074839;28;45248;-90
2022/04/28 03:56:51;;;;;;;;;72.25;55.00;;;;;12.66;54.39;101871.09;5074971;28;45370;-91
2022/04/28 03:59:16;;;;;;;;;66.50;51.00;;;;;12.58;54.41;101861.94;5074611;28;44949;-93
2022/04/28 04:01:42;;;;;;;;;72.25;54.75;;;;;12.52;54.72;101851.13;5073856;28;45033;-88
2022/04/28 04:04:17;;;;;;;;;69.25;52.50;;;;;12.61;54.51;101870.88;5072827;28;45162;-75
2022/04/28 04:06:42;;;;;;;;;68.00;54.50;;;;;12.60;54.57;101868.16;5072926;28;45217;-78
2022/04/28 04:09:08;;;;;;;;;70.00;53.25;;;;;12.56;54.58;101875.06;5073165;28;45213;-78
2022/04/28 04:11:33;;;;;;;;;52.00;42.25;;;;;12.52;54.49;101869.56;5072573;28;45186;-77
2022/04/28 04:13:59;;;;;;;;;50.25;41.00;;;;;12.51;54.55;101870.38;5070991;28;45028;-76
2022/04/28 04:16:24;;;;;;;;;47.50;38.75;;;;;12.50;54.73;101873.88;5072288;28;44999;-76
2022/04/28 04:18:50;;;;;;;;;47.75;40.00;;;;;12.44;54.71;101869.22;5071883;28;45160;-75
2022/04/28 04:21:15;;;;;;;;;42.50;36.25;;;;;12.37;54.75;101867.16;5072750;28;44917;-79
2022/04/28 04:23:41;;;;;;;;;49.75;39.25;;;;;12.40;54.93;101876.09;5072818;28;45002;-75
2022/04/28 04:26:07;;;;;;;;;48.50;39.00;;;;;12.38;55.28;101879.50;5072884;28;45542;-75
2022/04/28 04:28:33;;;;;;;;;56.25;44.50;;;;;12.40;54.92;101883.09;5072078;28;45053;-79
2022/04/28 04:33:47;;;;;;;;;54.75;45.00;;;;;12.31;55.38;101878.28;5064998;27;45133;-74
2022/04/28 04:36:12;;;;;;;;;49.75;42.25;;;;;12.35;55.31;101889.88;5089530;27;45353;-75
2022/04/28 04:38:38;;;;;;;;;51.50;42.00;;;;;12.29;55.27;101879.06;5091516;27;45198;-75
2022/04/28 04:41:05;;;;;;;;;51.00;40.25;;;;;12.30;55.40;101889.69;5103009;27;44876;-79
2022/04/28 04:43:31;;;;;;;;;42.25;36.75;;;;;12.26;55.40;101874.56;5085308;27;45360;-79
2022/04/28 04:45:56;;;;;;;;;42.50;37.50;;;;;12.33;55.46;101894.22;5086529;27;45797;-75
2022/04/28 04:48:22;;;;;;;;;46.00;37.75;;;;;12.33;55.65;101896.84;5099989;27;45383;-84
2022/04/28 04:50:48;;;;;;;;;43.75;37.25;;;;;12.29;55.47;101892.25;5106552;27;45047;-74
2022/04/28 04:53:14;;;;;;;;;42.75;35.75;;;;;12.28;55.57;101894.00;5084859;27;45944;-77
2022/04/28 04:55:39;;;;;;;;;40.33;36.33;;;;;12.28;55.63;101901.00;5094632;27;45492;-79
2022/04/28 04:58:05;;;;;;;;;43.00;36.67;;;;;12.26;56.08;101900.91;5082761;27;45667;-81
2022/04/28 05:00:31;;;;;;;;;40.00;35.00;;;;;12.19;56.10;101890.03;5083035;27;45393;-79
2022/04/28 05:02:57;;;;;;;;;42.25;36.00;;;;;12.19;56.51;101904.09;5088804;27;45571;-75
2022/04/28 05:05:22;;;;;;;;;44.25;37.00;;;;;12.25;56.18;101901.75;5103111;27;45167;-77
2022/04/28 05:07:47;;;;;;;;;44.00;37.00;;;;;12.20;56.08;101892.72;5097277;27;45026;-74
2022/04/28 05:10:13;;;;;;;;;42.00;36.00;;;;;12.21;56.12;101897.16;5096049;27;45032;-74
2022/04/28 05:12:38;;;;;;;;;43.67;38.00;;;;;12.22;55.81;101895.47;5096924;27;44968;-74
2022/04/28 05:15:04;;;;;;;;;41.25;36.50;;;;;12.27;56.28;101913.28;5104107;27;45934;-80
2022/04/28 05:17:29;;;;;;;;;41.75;36.25;;;;;12.27;56.46;101918.56;5098636;27;45295;-75
2022/04/28 05:19:58;;;;;;;;;39.50;35.00;;;;;12.31;55.84;101928.38;5092305;27;45449;-75
2022/04/28 05:22:26;;;;;;;;;44.00;36.00;;;;;12.32;56.24;101931.94;5100115;27;45152;-79
2022/04/28 05:24:52;;;;;;;;;44.50;39.00;;;;;12.32;56.34;101934.59;5099853;27;45419;-79
2022/04/28 05:27:17;;;;;;;;;50.67;39.33;;;;;12.36;56.04;101937.44;5099959;27;49043;-77
2022/04/28 05:29:43;;;;;;;;;46.25;40.25;;;;;12.39;55.92;101944.56;5098568;27;45428;-75
2022/04/28 05:32:08;;;;;;;;;47.75;38.75;;;;;12.42;56.24;101949.09;5101084;27;45048;-75
2022/04/28 05:34:34;;;;;;;;;52.75;41.75;;;;;12.43;56.30;101941.25;5101868;27;45324;-81
2022/04/28 05:36:59;;;;;;;;;52.50;40.75;;;;;12.40;56.11;101939.34;5085104;27;45056;-92
2022/04/28 05:39:26;;;;;;;;;49.00;40.50;;;;;12.33;56.41;101918.84;5072595;28;45229;-87
2022/04/28 05:41:52;;;;;;;;;44.00;38.50;;;;;12.50;56.51;101945.97;5073045;28;45040;-92
2022/04/28 05:47:03;;;;;;;;;51.00;42.75;;;;;12.57;56.30;101952.44;5093998;27;45284;-93
2022/04/28 05:49:28;;;;;;;;;48.00;40.25;;;;;12.59;56.68;101948.13;5070529;27;45639;-92
2022/04/28 05:51:54;;;;;;;;;49.75;41.50;;;;;12.62;56.37;101957.09;5056196;28;45515;-93
2022/04/28 05:54:19;;;;;;;;;44.75;38.50;;;;;12.65;56.49;101964.22;5056474;28;45278;-93
2022/04/28 05:56:44;;;;;;;;;49.00;41.33;;;;;12.60;56.32;101949.91;5056133;28;46076;-92
2022/04/28 05:59:10;;;;;;;;;48.25;40.00;;;;;12.73;56.30;101968.13;5056563;28;45440;-92
2022/04/28 06:01:36;;;;;;;;;47.75;40.50;;;;;12.74;56.15;101961.09;5056792;28;45309;-93
2022/04/28 06:04:02;;;;;;;;;52.00;40.00;;;;;12.77;56.22;101963.91;5056018;28;45271;-92
2022/04/28 06:06:27;;;;;;;;;47.00;38.50;;;;;12.74;56.01;101959.38;5056814;28;45454;-93
2022/04/28 06:08:52;;;;;;;;;54.75;44.00;;;;;12.84;56.10;101966.84;5056965;28;45495;-93
2022/04/28 06:11:18;;;;;;;;;44.75;37.00;;;;;12.70;56.07;101930.13;5056897;28;45410;-93
2022/04/28 06:13:44;;;;;;;;;50.00;42.25;;;;;12.93;56.32;101960.19;5056303;28;45550;-93
2022/04/28 06:16:09;;;;;;;;;50.00;42.25;;;;;12.89;55.81;101964.44;5056414;28;45295;-92
2022/04/28 06:18:34;;;;;;;;;50.67;42.33;;;;;13.00;55.85;101972.81;5092795;27;45509;-93
2022/04/28 06:20:59;;;;;;;;;45.00;39.00;;;;;13.03;55.81;101979.13;5097120;27;45608;-94
2022/04/28 06:23:25;;;;;;;;;52.67;43.00;;;;;13.06;55.71;101974.00;5096985;27;45482;-92
2022/04/28 06:25:50;;;;;;;;;49.33;41.67;;;;;13.11;55.70;101974.22;5095664;27;52699;-93
2022/04/28 06:28:15;;;;;;;;;48.67;41.00;;;;;13.16;55.81;101977.97;5096927;27;45622;-93
2022/04/28 06:30:41;;;;;;;;;51.75;42.50;;;;;13.18;55.55;101963.97;5097052;27;45363;-94
2022/04/28 06:33:08;;;;;;;;;52.75;42.00;;;;;13.17;55.73;101966.56;5096512;27;45853;-93
2022/04/28 06:35:33;;;;;;;;;48.50;40.75;;;;;13.29;55.49;101975.03;5097057;27;45290;-93
2022/04/28 06:38:00;;;;;;;;;54.50;44.00;;;;;13.32;55.40;101983.09;5100253;27;45386;-93
2022/04/28 06:40:25;;;;;;;;;52.50;42.25;;;;;13.39;55.33;101992.16;5100839;27;45272;-92
2022/04/28 06:42:52;;;;;;;;;48.50;41.75;;;;;13.42;55.12;101980.00;5100283;27;46394;-93
2022/04/28 06:45:17;;;;;;;;;48.25;41.25;;;;;13.42;55.34;101980.00;5100255;27;45918;-93
2022/04/28 06:47:43;;;;;;;;;50.50;41.50;;;;;13.55;55.25;101994.66;5100526;27;45406;-94
2022/04/28 06:50:09;;;;;;;;;49.25;41.25;;;;;13.60;55.45;101986.91;5100094;27;45515;-93
2022/04/28 06:52:36;;;;;;;;;49.75;42.00;;;;;13.70;54.93;101986.47;5100413;27;46269;-93
2022/04/28 06:55:05;;;;;;;;;53.00;42.50;;;;;13.77;54.87;101998.19;5100048;27;45409;-91
2022/04/28 06:57:31;;;;;;;;;52.00;43.00;;;;;13.79;54.92;101986.84;5100283;27;45209;-94
2022/04/28 06:59:56;;;;;;;;;52.00;42.75;;;;;13.94;54.64;101992.75;5100386;27;45413;-94
2022/04/28 07:02:22;;;;;;;;;48.75;42.00;;;;;14.02;54.42;101992.16;5100237;27;45267;-93
2022/04/28 07:04:47;;;;;;;;;50.75;42.00;;;;;13.99;54.38;101978.81;5100036;27;45345;-92
2022/04/28 07:07:14;;;;;;;;;48.00;40.50;;;;;14.10;53.92;101994.28;5100371;27;45530;-93
2022/04/28 07:09:39;;;;;;;;;48.25;40.75;;;;;14.22;54.17;101999.13;5100109;27;45362;-92
2022/04/28 07:12:05;;;;;;;;;49.25;40.50;;;;;14.27;53.86;102008.16;5100304;27;45348;-94
2022/04/28 07:14:30;;;;;;;;;51.00;43.00;;;;;14.31;53.73;101999.50;5099592;27;45287;-93
2022/04/28 07:16:55;;;;;;;;;43.00;38.00;;;;;14.32;53.85;101992.47;5100091;27;45473;-92
2022/04/28 07:19:21;;;;;;;;;47.67;39.33;;;;;14.40;53.71;102002.53;5099777;27;45655;-93
2022/04/28 07:21:46;;;;;;;;;44.00;37.50;;;;;14.45;53.33;101997.41;5099920;27;46070;-94
2022/04/28 07:24:11;;;;;;;;;50.00;41.33;;;;;14.49;53.29;101987.91;5099673;27;45706;-93
2022/04/28 07:26:37;;;;;;;;;48.00;39.00;;;;;14.61;53.15;102006.88;5098848;27;45468;-94
2022/04/28 07:29:05;;;;;;;;;47.75;38.00;;;;;14.62;53.53;102001.63;5099809;27;45381;-93
2022/04/28 07:31:31;;;;;;;;;48.50;41.00;;;;;14.74;52.96;102010.91;5099657;27;45392;-94
2022/04/28 07:33:56;;;;;;;;;49.75;40.50;;;;;14.83;52.72;102008.59;5099161;27;45523;-92
2022/04/28 07:36:22;;;;;;;;;43.00;37.00;;;;;14.74;52.91;101987.06;5099880;27;45254;-93
2022/04/28 07:38:47;;;;;;;;;43.75;37.50;;;;;14.92;52.63;102004.53;5099799;27;45334;-94
2022/04/28 07:41:14;;;;;;;;;44.50;38.00;;;;;15.04;52.48;102008.50;5097957;27;46009;-88
2022/04/28 07:43:39;;;;;;;;;46.50;38.25;;;;;15.11;51.94;102007.84;5088300;27;46079;-93
2022/04/28 07:46:05;;;;;;;;;46.75;39.00;;;;;15.20;52.28;101998.50;5079564;27;45397;-93
2022/04/28 07:48:30;;;;;;;;;46.00;40.00;;;;;15.39;51.92;102008.00;5078644;27;45377;-92
2022/04/28 07:50:55;;;;;;;;;50.33;41.00;;;;;15.49;51.80;102007.47;5078802;27;45268;-94
2022/04/28 07:53:21;;;;;;;;;45.00;38.50;;;;;15.53;51.35;102005.84;5078645;28;45671;-89
2022/04/28 07:56:10;;;;;;;;;43.50;36.75;;;;;15.65;51.70;102008.03;5079224;27;45314;-92
2022/04/28 07:58:32;;;;;;;;;49.00;40.25;;;;;15.73;51.37;102011.84;5078832;28;45397;-93
2022/04/28 08:00:59;;;;;;;;;42.50;36.25;;;;;15.76;50.63;102003.06;5078952;27;46107;-95
2022/04/28 08:03:25;;;;;;;;;44.00;36.50;;;;;15.84;50.59;102010.44;5078288;27;46034;-93
2022/04/28 08:05:50;;;;;;;;;46.75;39.00;;;;;15.88;50.69;102015.00;5078990;28;45478;-94
2022/04/28 08:08:15;;;;;;;;;47.25;39.50;;;;;15.96;50.82;102010.88;5079009;27;45343;-95
2022/04/28 08:10:41;;;;;;;;;42.67;37.33;;;;;16.03;50.54;102011.97;5078381;27;49909;-93
2022/04/28 08:13:06;;;;;;;;;45.75;38.50;;;;;16.07;50.19;102005.91;5078517;27;45394;-94
2022/04/28 08:15:31;;;;;;;;;46.00;37.33;;;;;16.08;50.32;101998.84;5078373;27;46369;-95
2022/04/28 08:17:57;;;;;;;;;48.33;39.00;;;;;16.17;50.36;101997.38;5078400;28;45506;-95
2022/04/28 08:20:22;;;;;;;;;38.67;35.00;;;;;16.31;50.12;102010.19;5078500;27;49093;-93
2022/04/28 08:22:47;;;;;;;;;44.00;37.75;;;;;16.36;49.85;102006.84;5078729;27;45311;-94
2022/04/28 08:25:13;;;;;;;;;38.00;33.00;;;;;16.48;49.91;102014.25;5078527;27;45465;-94
2022/04/28 08:27:38;;;;;;;;;39.75;35.25;;;;;16.56;49.90;102006.53;5078454;28;45326;-94
2022/04/28 08:30:04;;;;;;;;;38.50;33.75;;;;;16.68;49.85;102012.22;5078143;27;46306;-93
2022/04/28 08:32:30;;;;;;;;;40.25;35.75;;;;;16.79;49.59;102009.91;5078433;27;45440;-95
2022/04/28 08:34:55;;;;;;;;;41.50;35.00;;;;;16.87;49.53;102008.38;5078261;27;45262;-95
2022/04/28 08:37:21;;;;;;;;;38.00;34.00;;;;;16.92;48.88;102006.75;5078590;27;45387;-91
2022/04/28 08:39:46;;;;;;;;;42.00;36.00;;;;;16.94;48.77;102000.63;5078537;27;46455;-95
2022/04/28 08:42:13;;;;;;;;;40.50;36.00;;;;;17.03;48.48;102011.50;5078520;27;45254;-94
2022/04/28 08:44:39;;;;;;;;;40.75;34.50;;;;;17.06;48.31;102016.03;5078334;27;45579;-93
2022/04/28 08:47:05;;;;;;;;;38.75;33.00;;;;;17.12;48.50;102012.63;5078088;27;45573;-93
2022/04/28 08:49:32;;;;;;;;;41.75;35.75;;;;;17.15;48.19;102005.66;5077625;27;46122;-94
2022/04/28 08:51:59;;;;;;;;;36.75;33.00;;;;;17.11;48.40;101993.16;5078304;27;46024;-95
2022/04/28 08:54:27;;;;;;;;;38.75;34.50;;;;;17.27;47.90;102002.44;5078219;27;45372;-94
2022/04/28 08:56:54;;;;;;;;;33.75;31.00;;;;;17.35;47.83;101995.56;5078507;27;45501;-94
2022/04/28 08:59:21;;;;;;;;;37.50;33.25;;;;;17.44;47.94;102000.25;5077256;27;45299;-95
2022/04/28 09:01:47;;;;;;;;;36.00;33.25;;;;;17.52;47.70;101999.56;5077901;27;45969;-94
2022/04/28 09:04:13;;;;;;;;;33.75;31.00;;;;;17.56;47.19;101999.66;5077728;27;45457;-94
2022/04/28 09:06:41;;;;;;;;;36.00;33.00;;;;;17.65;47.26;102000.78;5076321;28;45568;-95
2022/04/28 09:09:17;;;;;;;;;35.00;31.75;;;;;17.62;47.26;101991.81;5077671;27;46407;-93
2022/04/28 09:11:46;;;;;;;;;34.75;32.00;;;;;17.61;47.32;101990.03;5077698;28;45741;-90
2022/04/28 09:14:20;;;;;;;;;32.50;31.00;;;;;17.69;47.38;102001.78;5077856;27;45516;-95
2022/04/28 09:16:51;;;;;;;;;34.00;30.75;;;;;17.72;47.77;102002.72;5077918;27;45424;-94
2022/04/28 09:19:28;;;;;;;;;36.25;33.25;;;;;17.75;47.18;102001.97;5077380;27;45505;-94
2022/04/28 09:21:56;;;;;;;;;35.75;32.50;;;;;17.80;47.35;102000.31;5077762;27;45837;-94
2022/04/28 09:24:23;;;;;;;;;36.25;33.25;;;;;17.83;47.46;101994.16;5077576;27;45747;-93
2022/04/28 09:26:53;;;;;;;;;39.75;34.50;;;;;17.86;46.46;101995.16;5077387;27;45702;-93
2022/04/28 09:29:19;;;;;;;;;35.00;32.00;;;;;17.83;46.70;101991.50;5077314;27;46256;-92
2022/04/28 09:31:46;;;;;;;;;31.75;30.50;;;;;17.93;46.06;101988.19;5076692;27;45292;-94
2022/04/28 09:34:16;;;;;;;;;31.75;30.75;;;;;17.98;46.41;101995.47;5075101;27;45499;-92
2022/04/28 09:36:43;;;;;;;;;31.25;30.00;;;;;18.09;45.91;101998.38;5075084;27;45741;-91
2022/04/28 09:39:14;;;;;;;;;34.50;32.25;;;;;18.21;46.38;101995.97;5074981;27;45520;-85
2022/04/28 09:44:24;;;;;;;;;34.50;32.25;;;;;18.39;46.12;101986.63;5073297;28;45520;-75
2022/04/28 09:46:50;;;;;;;;;35.50;32.50;;;;;18.53;45.76;101994.06;5073176;27;45264;-76
2022/04/28 09:49:23;;;;;;;;;36.50;33.00;;;;;18.53;45.34;101987.84;5073012;27;45398;-75
2022/04/28 09:51:57;;;;;;;;;37.25;32.75;;;;;18.54;45.24;101993.19;5073356;27;45984;-75
2022/04/28 09:54:28;;;;;;;;;32.00;30.00;;;;;18.60;46.24;101991.53;5073846;27;45498;-76
2022/04/28 09:56:53;;;;;;;;;31.25;30.00;;;;;18.69;45.54;101991.75;5073975;27;45378;-77
2022/04/28 09:59:20;;;;;;;;;34.00;32.00;;;;;18.79;45.49;101981.34;5073734;27;46738;-78
2022/04/28 10:01:45;;;;;;;;;36.50;33.00;;;;;18.92;45.11;101984.25;5073286;27;45851;-76
2022/04/28 10:04:11;;;;;;;;;32.00;29.75;;;;;19.04;45.27;101984.50;5073163;27;45448;-75
2022/04/28 10:06:38;;;;;;;;;32.33;31.00;;;;;19.18;44.58;101974.09;5072839;28;48719;-78
2022/04/28 10:09:12;;;;;;;;;27.25;26.75;;;;;19.29;44.48;101972.53;5072849;27;47595;-79
2022/04/28 10:11:38;;;;;;;;;30.75;29.75;;;;;19.42;44.25;101976.31;5075908;27;45385;-75
2022/04/28 10:14:05;;;;;;;;;32.25;30.50;;;;;19.44;44.42;101956.81;5076942;27;45442;-75
2022/04/28 10:16:30;;;;;;;;;29.25;28.25;;;;;19.61;43.74;101973.16;5076901;27;45302;-80
2022/04/28 10:19:17;;;;;;;;;31.50;29.50;;;;;19.67;43.78;101973.25;5076387;27;45656;-76
2022/04/28 10:22:00;;;;;;;;;27.75;25.75;;;;;19.79;43.64;101968.09;5079882;27;45423;-92
2022/04/28 10:32:56;;;;;;;;;30.00;28.00;;;;;20.09;42.04;101959.66;5079949;28;45315;-94
2022/04/28 10:35:50;;;;;;;;;29.25;27.75;;;;;20.15;41.92;101961.56;5080302;27;45339;-90
2022/04/28 10:38:31;;;;;;;;;31.25;30.00;;;;;20.18;41.59;101952.69;5080344;27;45330;-94
2022/04/28 10:41:10;;;;;;;;;23.25;22.50;;;;;20.18;42.17;101950.00;5080002;27;46124;-94
2022/04/28 10:43:38;;;;;;;;;21.50;21.25;;;;;20.37;42.43;101954.72;5081659;27;45812;-89
2022/04/28 10:46:09;;;;;;;;;24.75;23.50;;;;;20.49;41.48;101944.28;5082551;27;45333;-93
2022/04/28 10:48:42;;;;;;;;;18.75;18.50;;;;;20.60;41.26;101949.75;5079829;27;45469;-94
2022/04/28 10:51:22;;;;;;;;;16.50;16.50;;;;;20.65;41.15;101948.03;5080041;27;46190;-94
2022/04/28 10:54:09;;;;;;;;;21.25;19.75;;;;;20.66;40.61;101944.47;5080083;27;45749;-95
2022/04/28 10:56:40;;;;;;;;;14.75;14.75;;;;;20.66;41.06;101943.56;5080238;27;45481;-93
2022/04/28 10:59:29;;;;;;;;;17.00;17.00;;;;;20.69;40.32;101944.53;5078786;27;45413;-94
2022/04/28 11:02:17;;;;;;;;;16.00;15.75;;;;;20.74;40.81;101941.88;5079609;27;45421;-94
2022/04/28 11:04:45;;;;;;;;;14.00;14.00;;;;;20.82;40.34;101940.19;5079323;28;45934;-93
2022/04/28 11:07:21;;;;;;;;;18.75;18.00;;;;;20.93;39.74;101940.31;5080042;28;45240;-93
2022/04/28 11:09:57;;;;;;;;;12.75;12.50;;;;;21.00;38.75;101935.06;5080100;27;45462;-96
2022/04/28 11:12:25;;;;;;;;;15.00;15.00;;;;;21.10;39.54;101920.91;5079836;28;46603;-93
2022/04/28 11:14:59;;;;;;;;;16.25;16.00;;;;;21.26;39.38;101945.13;5079622;28;45401;-94
2022/04/28 11:17:28;;;;;;;;;13.75;13.75;;;;;21.34;39.00;101941.69;5079633;28;45303;-93
2022/04/28 11:19:54;;;;;;;;;15.25;14.25;;;;;21.35;38.28;101935.44;5079402;27;45479;-94
2022/04/28 11:22:19;;;;;;;;;12.25;12.25;;;;;21.38;38.00;101931.91;5078854;27;45549;-95
2022/04/28 11:24:45;;;;;;;;;12.25;12.25;;;;;21.44;37.16;101937.31;5079588;27;45250;-93
2022/04/28 11:27:30;;;;;;;;;9.75;9.75;;;;;21.44;35.77;101915.91;5078763;28;45499;-93
2022/04/28 11:29:57;;;;;;;;;11.50;10.50;;;;;21.59;35.84;101934.78;5080029;27;45218;-95
2022/04/28 11:32:23;;;;;;;;;12.75;12.50;;;;;21.72;35.08;101932.19;5079534;27;45429;-94
2022/04/28 11:34:50;;;;;;;;;8.00;8.00;;;;;21.95;35.20;101943.94;5079294;27;45335;-94
2022/04/28 11:37:24;;;;;;;;;9.25;9.25;;;;;22.09;35.05;101928.88;5079702;27;45398;-94
2022/04/28 11:39:51;;;;;;;;;11.50;10.50;;;;;22.40;34.69;101947.81;5079515;27;45441;-93